sensor_id;sensor_type;location;lat;lon;timestamp;P1;durP1;ratioP1;P2;durP2;ratioP2
10761;SDS011;5433;50.862;4.320;2024-02-23T00:00:20;4.30;;;0.90;;
10761;SDS011;5433;50.862;4.320;2024-02-23T00:02:46;4.18;;;0.88;;
10761;SDS011;5433;50.862;4.320;2024-02-23T00:05:12;3.13;;;0.93;;
10761;SDS011;5433;50.862;4.320;2024-02-23T00:07:38;3.95;;;1.20;;
10761;SDS011;5433;50.862;4.320;2024-02-23T00:10:04;2.25;;;1.02;;
10761;SDS011;5433;50.862;4.320;2024-02-23T00:12:30;3.35;;;0.88;;
10761;SDS011;5433;50.862;4.320;2024-02-23T00:14:57;2.70;;;0.80;;
10761;SDS011;5433;50.862;4.320;2024-02-23T00:17:23;2.65;;;0.85;;
10761;SDS011;5433;50.862;4.320;2024-02-23T00:19:48;1.73;;;0.80;;
10761;SDS011;5433;50.862;4.320;2024-02-23T00:22:17;3.78;;;0.80;;
10761;SDS011;5433;50.862;4.320;2024-02-23T00:24:43;3.63;;;1.02;;
10761;SDS011;5433;50.862;4.320;2024-02-23T00:27:09;4.68;;;0.80;;
10761;SDS011;5433;50.862;4.320;2024-02-23T00:29:35;1.85;;;0.60;;
10761;SDS011;5433;50.862;4.320;2024-02-23T00:32:01;1.52;;;0.70;;
10761;SDS011;5433;50.862;4.320;2024-02-23T00:34:27;2.10;;;0.60;;
10761;SDS011;5433;50.862;4.320;2024-02-23T00:36:55;3.20;;;0.70;;
10761;SDS011;5433;50.862;4.320;2024-02-23T00:39:22;3.15;;;0.68;;
10761;SDS011;5433;50.862;4.320;2024-02-23T00:41:48;1.20;;;0.57;;
10761;SDS011;5433;50.862;4.320;2024-02-23T00:44:14;2.50;;;0.60;;
10761;SDS011;5433;50.862;4.320;2024-02-23T00:46:40;1.83;;;0.70;;
10761;SDS011;5433;50.862;4.320;2024-02-23T00:49:06;3.33;;;0.80;;
10761;SDS011;5433;50.862;4.320;2024-02-23T00:51:32;1.52;;;0.75;;
10761;SDS011;5433;50.862;4.320;2024-02-23T00:53:58;2.90;;;0.80;;
10761;SDS011;5433;50.862;4.320;2024-02-23T00:56:24;2.63;;;0.95;;
10761;SDS011;5433;50.862;4.320;2024-02-23T00:58:50;2.13;;;0.65;;
10761;SDS011;5433;50.862;4.320;2024-02-23T01:04:20;2.55;;;0.80;;
10761;SDS011;5433;50.862;4.320;2024-02-23T01:06:46;1.83;;;0.75;;
10761;SDS011;5433;50.862;4.320;2024-02-23T01:09:12;4.07;;;1.00;;
10761;SDS011;5433;50.862;4.320;2024-02-23T01:11:38;2.22;;;0.70;;
10761;SDS011;5433;50.862;4.320;2024-02-23T01:14:04;3.00;;;0.88;;
10761;SDS011;5433;50.862;4.320;2024-02-23T01:16:31;2.05;;;0.82;;
10761;SDS011;5433;50.862;4.320;2024-02-23T01:18:57;3.25;;;1.02;;
10761;SDS011;5433;50.862;4.320;2024-02-23T01:21:23;1.83;;;0.70;;
10761;SDS011;5433;50.862;4.320;2024-02-23T01:23:49;3.63;;;0.90;;
10761;SDS011;5433;50.862;4.320;2024-02-23T01:26:15;2.95;;;0.70;;
10761;SDS011;5433;50.862;4.320;2024-02-23T01:28:41;3.55;;;1.00;;
10761;SDS011;5433;50.862;4.320;2024-02-23T01:31:11;3.30;;;0.70;;
10761;SDS011;5433;50.862;4.320;2024-02-23T01:33:38;2.72;;;0.70;;
10761;SDS011;5433;50.862;4.320;2024-02-23T01:36:05;3.28;;;0.70;;
10761;SDS011;5433;50.862;4.320;2024-02-23T01:38:31;2.50;;;0.63;;
10761;SDS011;5433;50.862;4.320;2024-02-23T01:41:01;2.70;;;0.80;;
10761;SDS011;5433;50.862;4.320;2024-02-23T01:43:27;2.88;;;0.80;;
10761;SDS011;5433;50.862;4.320;2024-02-23T01:45:53;2.97;;;0.80;;
10761;SDS011;5433;50.862;4.320;2024-02-23T01:48:19;2.15;;;0.70;;
10761;SDS011;5433;50.862;4.320;2024-02-23T01:50:46;3.08;;;0.77;;
10761;SDS011;5433;50.862;4.320;2024-02-23T01:53:12;3.80;;;0.98;;
10761;SDS011;5433;50.862;4.320;2024-02-23T01:55:41;5.72;;;1.10;;
10761;SDS011;5433;50.862;4.320;2024-02-23T01:58:10;3.00;;;0.98;;
10761;SDS011;5433;50.862;4.320;2024-02-23T02:00:37;3.00;;;0.88;;
10761;SDS011;5433;50.862;4.320;2024-02-23T02:03:03;4.53;;;1.17;;
10761;SDS011;5433;50.862;4.320;2024-02-23T02:05:29;4.13;;;1.08;;
10761;SDS011;5433;50.862;4.320;2024-02-23T02:07:55;5.05;;;1.20;;
10761;SDS011;5433;50.862;4.320;2024-02-23T02:13:36;2.97;;;1.10;;
10761;SDS011;5433;50.862;4.320;2024-02-23T02:16:02;4.18;;;1.20;;
10761;SDS011;5433;50.862;4.320;2024-02-23T02:21:37;7.38;;;1.20;;
10761;SDS011;5433;50.862;4.320;2024-02-23T02:24:03;4.28;;;1.00;;
10761;SDS011;5433;50.862;4.320;2024-02-23T02:26:29;4.57;;;1.17;;
10761;SDS011;5433;50.862;4.320;2024-02-23T02:28:55;3.83;;;1.08;;
10761;SDS011;5433;50.862;4.320;2024-02-23T02:31:21;6.50;;;1.30;;
10761;SDS011;5433;50.862;4.320;2024-02-23T02:33:47;4.65;;;1.33;;
10761;SDS011;5433;50.862;4.320;2024-02-23T02:36:13;3.85;;;1.10;;
10761;SDS011;5433;50.862;4.320;2024-02-23T02:38:39;6.05;;;1.10;;
10761;SDS011;5433;50.862;4.320;2024-02-23T02:41:05;2.00;;;1.08;;
10761;SDS011;5433;50.862;4.320;2024-02-23T02:43:31;3.58;;;1.10;;
10761;SDS011;5433;50.862;4.320;2024-02-23T02:45:58;2.95;;;0.95;;
10761;SDS011;5433;50.862;4.320;2024-02-23T02:48:24;5.60;;;1.00;;
10761;SDS011;5433;50.862;4.320;2024-02-23T02:50:50;7.38;;;1.20;;
10761;SDS011;5433;50.862;4.320;2024-02-23T02:53:17;7.18;;;1.33;;
10761;SDS011;5433;50.862;4.320;2024-02-23T02:55:43;3.72;;;1.02;;
10761;SDS011;5433;50.862;4.320;2024-02-23T02:58:11;6.15;;;1.00;;
10761;SDS011;5433;50.862;4.320;2024-02-23T03:00:37;5.28;;;1.23;;
10761;SDS011;5433;50.862;4.320;2024-02-23T03:03:03;3.35;;;0.77;;
10761;SDS011;5433;50.862;4.320;2024-02-23T03:05:29;3.83;;;1.00;;
10761;SDS011;5433;50.862;4.320;2024-02-23T03:07:56;5.25;;;1.00;;
10761;SDS011;5433;50.862;4.320;2024-02-23T03:10:22;4.05;;;1.08;;
10761;SDS011;5433;50.862;4.320;2024-02-23T03:12:48;5.20;;;1.30;;
10761;SDS011;5433;50.862;4.320;2024-02-23T03:15:14;3.40;;;1.08;;
10761;SDS011;5433;50.862;4.320;2024-02-23T03:17:40;3.60;;;1.15;;
10761;SDS011;5433;50.862;4.320;2024-02-23T03:20:06;4.50;;;1.10;;
10761;SDS011;5433;50.862;4.320;2024-02-23T03:22:36;3.20;;;1.20;;
10761;SDS011;5433;50.862;4.320;2024-02-23T03:25:02;3.80;;;1.05;;
10761;SDS011;5433;50.862;4.320;2024-02-23T03:27:33;4.30;;;0.93;;
10761;SDS011;5433;50.862;4.320;2024-02-23T03:29:59;4.10;;;1.08;;
10761;SDS011;5433;50.862;4.320;2024-02-23T03:32:25;5.60;;;1.20;;
10761;SDS011;5433;50.862;4.320;2024-02-23T03:34:51;5.07;;;1.10;;
10761;SDS011;5433;50.862;4.320;2024-02-23T03:37:20;4.20;;;1.20;;
10761;SDS011;5433;50.862;4.320;2024-02-23T03:39:46;5.70;;;1.08;;
10761;SDS011;5433;50.862;4.320;2024-02-23T03:42:13;6.55;;;1.25;;
10761;SDS011;5433;50.862;4.320;2024-02-23T03:44:39;5.55;;;1.02;;
10761;SDS011;5433;50.862;4.320;2024-02-23T03:47:07;3.88;;;1.02;;
10761;SDS011;5433;50.862;4.320;2024-02-23T03:49:33;3.53;;;1.20;;
10761;SDS011;5433;50.862;4.320;2024-02-23T03:51:59;5.00;;;1.40;;
10761;SDS011;5433;50.862;4.320;2024-02-23T03:54:25;5.95;;;1.20;;
10761;SDS011;5433;50.862;4.320;2024-02-23T03:56:51;3.83;;;1.20;;
10761;SDS011;5433;50.862;4.320;2024-02-23T03:59:17;6.38;;;1.27;;
10761;SDS011;5433;50.862;4.320;2024-02-23T04:01:43;4.50;;;1.20;;
10761;SDS011;5433;50.862;4.320;2024-02-23T04:04:09;6.20;;;1.30;;
10761;SDS011;5433;50.862;4.320;2024-02-23T04:06:35;4.22;;;1.35;;
10761;SDS011;5433;50.862;4.320;2024-02-23T04:09:02;4.03;;;1.38;;
10761;SDS011;5433;50.862;4.320;2024-02-23T04:11:31;5.32;;;1.23;;
10761;SDS011;5433;50.862;4.320;2024-02-23T04:13:57;4.32;;;1.38;;
10761;SDS011;5433;50.862;4.320;2024-02-23T04:16:23;5.15;;;1.02;;
10761;SDS011;5433;50.862;4.320;2024-02-23T04:18:50;5.30;;;1.33;;
10761;SDS011;5433;50.862;4.320;2024-02-23T04:24:19;6.38;;;1.45;;
10761;SDS011;5433;50.862;4.320;2024-02-23T04:26:45;4.47;;;1.38;;
10761;SDS011;5433;50.862;4.320;2024-02-23T04:29:11;6.10;;;1.33;;
10761;SDS011;5433;50.862;4.320;2024-02-23T04:31:37;4.60;;;1.33;;
10761;SDS011;5433;50.862;4.320;2024-02-23T04:34:03;6.00;;;1.65;;
10761;SDS011;5433;50.862;4.320;2024-02-23T04:36:29;7.20;;;1.48;;
10761;SDS011;5433;50.862;4.320;2024-02-23T04:38:55;8.63;;;1.20;;
10761;SDS011;5433;50.862;4.320;2024-02-23T04:41:21;5.50;;;1.30;;
10761;SDS011;5433;50.862;4.320;2024-02-23T04:43:47;4.07;;;1.02;;
10761;SDS011;5433;50.862;4.320;2024-02-23T04:46:13;6.05;;;1.35;;
10761;SDS011;5433;50.862;4.320;2024-02-23T04:48:40;3.97;;;0.93;;
10761;SDS011;5433;50.862;4.320;2024-02-23T04:51:06;6.03;;;1.20;;
10761;SDS011;5433;50.862;4.320;2024-02-23T04:53:37;6.65;;;1.50;;
10761;SDS011;5433;50.862;4.320;2024-02-23T04:56:04;6.70;;;1.42;;
10761;SDS011;5433;50.862;4.320;2024-02-23T04:58:30;5.97;;;1.40;;
10761;SDS011;5433;50.862;4.320;2024-02-23T05:00:56;6.03;;;1.30;;
10761;SDS011;5433;50.862;4.320;2024-02-23T05:03:22;4.70;;;1.40;;
10761;SDS011;5433;50.862;4.320;2024-02-23T05:05:48;5.75;;;1.27;;
10761;SDS011;5433;50.862;4.320;2024-02-23T05:08:21;4.15;;;1.50;;
10761;SDS011;5433;50.862;4.320;2024-02-23T05:10:49;6.20;;;1.92;;
10761;SDS011;5433;50.862;4.320;2024-02-23T05:13:16;6.40;;;2.13;;
10761;SDS011;5433;50.862;4.320;2024-02-23T05:15:45;6.72;;;2.03;;
10761;SDS011;5433;50.862;4.320;2024-02-23T05:18:11;4.47;;;2.05;;
10761;SDS011;5433;50.862;4.320;2024-02-23T05:20:37;5.40;;;2.30;;
10761;SDS011;5433;50.862;4.320;2024-02-23T05:23:03;7.63;;;2.00;;
10761;SDS011;5433;50.862;4.320;2024-02-23T05:25:29;3.88;;;1.83;;
10761;SDS011;5433;50.862;4.320;2024-02-23T05:27:55;5.30;;;1.70;;
10761;SDS011;5433;50.862;4.320;2024-02-23T05:30:21;5.30;;;1.60;;
10761;SDS011;5433;50.862;4.320;2024-02-23T05:32:49;7.20;;;1.65;;
10761;SDS011;5433;50.862;4.320;2024-02-23T05:35:15;6.20;;;1.60;;
10761;SDS011;5433;50.862;4.320;2024-02-23T05:37:41;4.97;;;1.38;;
10761;SDS011;5433;50.862;4.320;2024-02-23T05:40:07;5.70;;;1.60;;
10761;SDS011;5433;50.862;4.320;2024-02-23T05:42:37;4.53;;;1.73;;
10761;SDS011;5433;50.862;4.320;2024-02-23T05:45:03;7.57;;;1.70;;
10761;SDS011;5433;50.862;4.320;2024-02-23T05:47:34;3.08;;;1.45;;
10761;SDS011;5433;50.862;4.320;2024-02-23T05:50:01;5.55;;;1.50;;
10761;SDS011;5433;50.862;4.320;2024-02-23T05:52:27;6.90;;;1.65;;
10761;SDS011;5433;50.862;4.320;2024-02-23T05:54:53;7.07;;;1.75;;
10761;SDS011;5433;50.862;4.320;2024-02-23T05:57:21;6.25;;;1.63;;
10761;SDS011;5433;50.862;4.320;2024-02-23T05:59:46;5.75;;;1.45;;
10761;SDS011;5433;50.862;4.320;2024-02-23T06:02:13;3.50;;;1.30;;
10761;SDS011;5433;50.862;4.320;2024-02-23T06:04:42;5.28;;;1.60;;
10761;SDS011;5433;50.862;4.320;2024-02-23T06:07:08;5.35;;;1.60;;
10761;SDS011;5433;50.862;4.320;2024-02-23T06:09:34;8.85;;;2.00;;
10761;SDS011;5433;50.862;4.320;2024-02-23T06:12:00;7.72;;;1.63;;
10761;SDS011;5433;50.862;4.320;2024-02-23T06:14:27;9.52;;;1.92;;
10761;SDS011;5433;50.862;4.320;2024-02-23T06:16:56;4.18;;;1.60;;
10761;SDS011;5433;50.862;4.320;2024-02-23T06:19:23;9.10;;;1.60;;
10761;SDS011;5433;50.862;4.320;2024-02-23T06:21:49;3.92;;;1.27;;
10761;SDS011;5433;50.862;4.320;2024-02-23T06:24:15;4.50;;;1.50;;
10761;SDS011;5433;50.862;4.320;2024-02-23T06:26:41;6.30;;;1.98;;
10761;SDS011;5433;50.862;4.320;2024-02-23T06:29:08;6.35;;;1.73;;
10761;SDS011;5433;50.862;4.320;2024-02-23T06:31:36;5.22;;;1.40;;
10761;SDS011;5433;50.862;4.320;2024-02-23T06:34:03;6.72;;;1.80;;
10761;SDS011;5433;50.862;4.320;2024-02-23T06:36:29;4.22;;;1.30;;
10761;SDS011;5433;50.862;4.320;2024-02-23T06:38:55;6.03;;;1.98;;
10761;SDS011;5433;50.862;4.320;2024-02-23T06:41:21;9.75;;;1.65;;
10761;SDS011;5433;50.862;4.320;2024-02-23T06:43:47;4.95;;;1.52;;
10761;SDS011;5433;50.862;4.320;2024-02-23T06:46:13;6.93;;;1.67;;
10761;SDS011;5433;50.862;4.320;2024-02-23T06:48:39;7.32;;;1.48;;
10761;SDS011;5433;50.862;4.320;2024-02-23T06:51:05;5.45;;;1.30;;
10761;SDS011;5433;50.862;4.320;2024-02-23T06:53:34;7.35;;;2.05;;
10761;SDS011;5433;50.862;4.320;2024-02-23T06:56:00;8.55;;;2.20;;
10761;SDS011;5433;50.862;4.320;2024-02-23T06:58:27;6.43;;;1.25;;
10761;SDS011;5433;50.862;4.320;2024-02-23T07:00:53;6.22;;;1.50;;
10761;SDS011;5433;50.862;4.320;2024-02-23T07:03:19;4.75;;;1.55;;
10761;SDS011;5433;50.862;4.320;2024-02-23T07:05:45;6.85;;;1.75;;
10761;SDS011;5433;50.862;4.320;2024-02-23T07:08:12;7.00;;;1.60;;
10761;SDS011;5433;50.862;4.320;2024-02-23T07:10:38;6.05;;;1.58;;
10761;SDS011;5433;50.862;4.320;2024-02-23T07:13:05;4.60;;;1.40;;
10761;SDS011;5433;50.862;4.320;2024-02-23T07:15:32;8.93;;;1.83;;
10761;SDS011;5433;50.862;4.320;2024-02-23T07:17:59;4.00;;;1.60;;
10761;SDS011;5433;50.862;4.320;2024-02-23T07:20:25;8.65;;;1.70;;
10761;SDS011;5433;50.862;4.320;2024-02-23T07:22:54;7.65;;;1.55;;
10761;SDS011;5433;50.862;4.320;2024-02-23T07:25:20;3.90;;;1.60;;
10761;SDS011;5433;50.862;4.320;2024-02-23T07:27:46;7.43;;;1.58;;
10761;SDS011;5433;50.862;4.320;2024-02-23T07:36:20;5.53;;;1.40;;
10761;SDS011;5433;50.862;4.320;2024-02-23T07:38:47;7.93;;;1.50;;
10761;SDS011;5433;50.862;4.320;2024-02-23T07:41:14;5.00;;;1.52;;
10761;SDS011;5433;50.862;4.320;2024-02-23T07:43:40;7.65;;;1.80;;
10761;SDS011;5433;50.862;4.320;2024-02-23T07:46:06;6.68;;;1.48;;
10761;SDS011;5433;50.862;4.320;2024-02-23T07:48:35;8.52;;;1.80;;
10761;SDS011;5433;50.862;4.320;2024-02-23T07:51:02;7.30;;;1.80;;
10761;SDS011;5433;50.862;4.320;2024-02-23T07:53:29;6.28;;;2.05;;
10761;SDS011;5433;50.862;4.320;2024-02-23T07:55:54;5.78;;;1.45;;
10761;SDS011;5433;50.862;4.320;2024-02-23T07:58:21;8.55;;;1.88;;
10761;SDS011;5433;50.862;4.320;2024-02-23T08:00:47;7.43;;;1.58;;
10761;SDS011;5433;50.862;4.320;2024-02-23T08:03:13;5.00;;;1.55;;
10761;SDS011;5433;50.862;4.320;2024-02-23T08:05:39;7.03;;;1.80;;
10761;SDS011;5433;50.862;4.320;2024-02-23T08:08:05;6.55;;;1.50;;
10761;SDS011;5433;50.862;4.320;2024-02-23T08:10:32;5.93;;;1.60;;
10761;SDS011;5433;50.862;4.320;2024-02-23T08:12:58;5.22;;;1.50;;
10761;SDS011;5433;50.862;4.320;2024-02-23T08:15:25;5.70;;;1.40;;
10761;SDS011;5433;50.862;4.320;2024-02-23T08:17:51;6.05;;;1.60;;
10761;SDS011;5433;50.862;4.320;2024-02-23T08:20:17;4.55;;;1.40;;
10761;SDS011;5433;50.862;4.320;2024-02-23T08:22:44;3.45;;;1.35;;
10761;SDS011;5433;50.862;4.320;2024-02-23T08:25:10;4.97;;;1.50;;
10761;SDS011;5433;50.862;4.320;2024-02-23T08:27:36;5.05;;;1.50;;
10761;SDS011;5433;50.862;4.320;2024-02-23T08:30:02;4.03;;;1.40;;
10761;SDS011;5433;50.862;4.320;2024-02-23T08:32:28;4.40;;;1.50;;
10761;SDS011;5433;50.862;4.320;2024-02-23T08:34:54;5.70;;;1.60;;
10761;SDS011;5433;50.862;4.320;2024-02-23T08:37:24;5.65;;;1.50;;
10761;SDS011;5433;50.862;4.320;2024-02-23T08:39:51;5.07;;;1.77;;
10761;SDS011;5433;50.862;4.320;2024-02-23T08:42:17;6.68;;;1.40;;
10761;SDS011;5433;50.862;4.320;2024-02-23T08:44:43;9.02;;;1.70;;
10761;SDS011;5433;50.862;4.320;2024-02-23T08:47:09;5.80;;;1.67;;
10761;SDS011;5433;50.862;4.320;2024-02-23T08:49:35;6.38;;;1.55;;
10761;SDS011;5433;50.862;4.320;2024-02-23T08:52:00;7.75;;;1.95;;
10761;SDS011;5433;50.862;4.320;2024-02-23T08:54:27;6.35;;;1.63;;
10761;SDS011;5433;50.862;4.320;2024-02-23T08:56:53;5.72;;;1.75;;
10761;SDS011;5433;50.862;4.320;2024-02-23T08:59:19;6.38;;;1.75;;
10761;SDS011;5433;50.862;4.320;2024-02-23T09:01:45;4.55;;;1.60;;
10761;SDS011;5433;50.862;4.320;2024-02-23T09:09:56;6.80;;;1.90;;
10761;SDS011;5433;50.862;4.320;2024-02-23T09:12:22;3.53;;;1.48;;
10761;SDS011;5433;50.862;4.320;2024-02-23T09:14:48;5.22;;;1.80;;
10761;SDS011;5433;50.862;4.320;2024-02-23T09:17:14;4.93;;;1.77;;
10761;SDS011;5433;50.862;4.320;2024-02-23T09:19:40;5.30;;;1.60;;
10761;SDS011;5433;50.862;4.320;2024-02-23T09:22:06;7.82;;;2.35;;
10761;SDS011;5433;50.862;4.320;2024-02-23T09:24:32;7.72;;;2.03;;
10761;SDS011;5433;50.862;4.320;2024-02-23T09:26:58;8.35;;;2.20;;
10761;SDS011;5433;50.862;4.320;2024-02-23T09:29:24;6.22;;;4.05;;
10761;SDS011;5433;50.862;4.320;2024-02-23T09:31:50;7.20;;;2.30;;
10761;SDS011;5433;50.862;4.320;2024-02-23T09:34:17;4.38;;;1.70;;
10761;SDS011;5433;50.862;4.320;2024-02-23T09:36:43;8.25;;;2.40;;
10761;SDS011;5433;50.862;4.320;2024-02-23T09:39:09;7.75;;;2.47;;
10761;SDS011;5433;50.862;4.320;2024-02-23T09:41:35;8.93;;;1.98;;
10761;SDS011;5433;50.862;4.320;2024-02-23T09:44:02;9.25;;;2.10;;
10761;SDS011;5433;50.862;4.320;2024-02-23T09:46:28;7.78;;;2.30;;
10761;SDS011;5433;50.862;4.320;2024-02-23T09:48:54;10.00;;;2.50;;
10761;SDS011;5433;50.862;4.320;2024-02-23T09:51:21;4.85;;;2.30;;
10761;SDS011;5433;50.862;4.320;2024-02-23T09:53:49;7.00;;;2.45;;
10761;SDS011;5433;50.862;4.320;2024-02-23T09:56:16;7.00;;;2.40;;
10761;SDS011;5433;50.862;4.320;2024-02-23T09:58:44;5.32;;;2.42;;
10761;SDS011;5433;50.862;4.320;2024-02-23T10:01:12;6.90;;;2.50;;
10761;SDS011;5433;50.862;4.320;2024-02-23T10:03:43;7.30;;;2.30;;
10761;SDS011;5433;50.862;4.320;2024-02-23T10:06:10;4.15;;;2.00;;
10761;SDS011;5433;50.862;4.320;2024-02-23T10:08:36;6.28;;;1.60;;
10761;SDS011;5433;50.862;4.320;2024-02-23T10:11:02;3.70;;;1.20;;
10761;SDS011;5433;50.862;4.320;2024-02-23T10:13:29;6.00;;;1.58;;
10761;SDS011;5433;50.862;4.320;2024-02-23T10:15:55;11.07;;;1.52;;
10761;SDS011;5433;50.862;4.320;2024-02-23T10:18:21;7.70;;;1.33;;
10761;SDS011;5433;50.862;4.320;2024-02-23T10:20:48;3.90;;;1.30;;
10761;SDS011;5433;50.862;4.320;2024-02-23T10:23:15;5.70;;;1.33;;
10761;SDS011;5433;50.862;4.320;2024-02-23T10:25:41;5.97;;;1.52;;
10761;SDS011;5433;50.862;4.320;2024-02-23T10:28:07;3.97;;;1.40;;
10761;SDS011;5433;50.862;4.320;2024-02-23T10:30:36;4.35;;;1.35;;
10761;SDS011;5433;50.862;4.320;2024-02-23T10:33:03;4.25;;;1.30;;
10761;SDS011;5433;50.862;4.320;2024-02-23T10:35:30;4.85;;;2.90;;
10761;SDS011;5433;50.862;4.320;2024-02-23T10:38:00;4.82;;;1.38;;
10761;SDS011;5433;50.862;4.320;2024-02-23T10:40:27;5.28;;;1.70;;
10761;SDS011;5433;50.862;4.320;2024-02-23T10:43:02;5.70;;;2.10;;
10761;SDS011;5433;50.862;4.320;2024-02-23T10:45:28;6.68;;;2.00;;
10761;SDS011;5433;50.862;4.320;2024-02-23T10:47:56;6.38;;;1.75;;
10761;SDS011;5433;50.862;4.320;2024-02-23T10:50:23;4.03;;;1.77;;
10761;SDS011;5433;50.862;4.320;2024-02-23T10:52:49;5.97;;;1.77;;
10761;SDS011;5433;50.862;4.320;2024-02-23T10:55:16;4.35;;;1.50;;
10761;SDS011;5433;50.862;4.320;2024-02-23T10:57:42;4.63;;;1.45;;
10761;SDS011;5433;50.862;4.320;2024-02-23T11:00:08;3.80;;;1.30;;
10761;SDS011;5433;50.862;4.320;2024-02-23T11:02:53;5.75;;;1.42;;
10761;SDS011;5433;50.862;4.320;2024-02-23T11:05:20;3.95;;;1.30;;
10761;SDS011;5433;50.862;4.320;2024-02-23T11:07:47;5.03;;;1.60;;
10761;SDS011;5433;50.862;4.320;2024-02-23T11:10:16;8.93;;;1.67;;
10761;SDS011;5433;50.862;4.320;2024-02-23T11:12:44;4.55;;;1.42;;
10761;SDS011;5433;50.862;4.320;2024-02-23T11:15:13;3.55;;;1.52;;
10761;SDS011;5433;50.862;4.320;2024-02-23T11:17:51;7.13;;;1.48;;
10761;SDS011;5433;50.862;4.320;2024-02-23T11:20:17;7.18;;;2.00;;
10761;SDS011;5433;50.862;4.320;2024-02-23T11:22:44;3.97;;;1.60;;
10761;SDS011;5433;50.862;4.320;2024-02-23T11:25:10;7.18;;;1.58;;
10761;SDS011;5433;50.862;4.320;2024-02-23T11:27:36;6.72;;;2.03;;
10761;SDS011;5433;50.862;4.320;2024-02-23T11:32:42;8.27;;;1.98;;
10761;SDS011;5433;50.862;4.320;2024-02-23T11:35:12;8.00;;;1.70;;
10761;SDS011;5433;50.862;4.320;2024-02-23T11:40:23;3.20;;;1.20;;
10761;SDS011;5433;50.862;4.320;2024-02-23T11:42:50;5.20;;;1.60;;
10761;SDS011;5433;50.862;4.320;2024-02-23T11:45:16;3.95;;;1.20;;
10761;SDS011;5433;50.862;4.320;2024-02-23T11:47:42;5.22;;;1.23;;
10761;SDS011;5433;50.862;4.320;2024-02-23T11:50:08;3.47;;;1.13;;
10761;SDS011;5433;50.862;4.320;2024-02-23T11:52:38;5.13;;;1.20;;
10761;SDS011;5433;50.862;4.320;2024-02-23T11:55:05;3.30;;;1.15;;
10761;SDS011;5433;50.862;4.320;2024-02-23T11:57:32;3.38;;;0.98;;
10761;SDS011;5433;50.862;4.320;2024-02-23T11:59:58;3.08;;;1.10;;
10761;SDS011;5433;50.862;4.320;2024-02-23T12:02:24;5.03;;;1.20;;
10761;SDS011;5433;50.862;4.320;2024-02-23T12:04:50;3.72;;;1.20;;
10761;SDS011;5433;50.862;4.320;2024-02-23T12:07:16;3.83;;;1.27;;
10761;SDS011;5433;50.862;4.320;2024-02-23T12:09:42;3.28;;;1.10;;
10761;SDS011;5433;50.862;4.320;2024-02-23T12:12:08;3.45;;;1.10;;
10761;SDS011;5433;50.862;4.320;2024-02-23T12:14:37;4.72;;;2.13;;
10761;SDS011;5433;50.862;4.320;2024-02-23T12:17:05;3.63;;;1.10;;
10761;SDS011;5433;50.862;4.320;2024-02-23T12:19:31;4.25;;;1.20;;
10761;SDS011;5433;50.862;4.320;2024-02-23T12:22:01;4.75;;;1.02;;
10761;SDS011;5433;50.862;4.320;2024-02-23T12:24:27;3.33;;;1.25;;
10761;SDS011;5433;50.862;4.320;2024-02-23T12:26:56;4.68;;;1.20;;
10761;SDS011;5433;50.862;4.320;2024-02-23T12:29:22;2.38;;;1.10;;
10761;SDS011;5433;50.862;4.320;2024-02-23T12:31:48;2.78;;;1.10;;
10761;SDS011;5433;50.862;4.320;2024-02-23T12:34:14;3.92;;;1.27;;
10761;SDS011;5433;50.862;4.320;2024-02-23T12:36:40;3.50;;;1.10;;
10761;SDS011;5433;50.862;4.320;2024-02-23T12:39:06;5.68;;;1.30;;
10761;SDS011;5433;50.862;4.320;2024-02-23T12:41:32;4.03;;;1.17;;
10761;SDS011;5433;50.862;4.320;2024-02-23T12:43:58;6.45;;;1.40;;
10761;SDS011;5433;50.862;4.320;2024-02-23T12:46:24;3.85;;;1.20;;
10761;SDS011;5433;50.862;4.320;2024-02-23T12:48:50;3.45;;;1.20;;
10761;SDS011;5433;50.862;4.320;2024-02-23T12:51:16;4.10;;;1.30;;
10761;SDS011;5433;50.862;4.320;2024-02-23T12:53:42;4.35;;;1.15;;
10761;SDS011;5433;50.862;4.320;2024-02-23T12:58:36;4.57;;;2.00;;
10761;SDS011;5433;50.862;4.320;2024-02-23T13:01:02;7.85;;;2.45;;
10761;SDS011;5433;50.862;4.320;2024-02-23T13:03:28;10.50;;;2.60;;
10761;SDS011;5433;50.862;4.320;2024-02-23T13:05:54;7.53;;;2.60;;
10761;SDS011;5433;50.862;4.320;2024-02-23T13:08:21;7.80;;;2.72;;
10761;SDS011;5433;50.862;4.320;2024-02-23T13:10:47;5.00;;;2.40;;
10761;SDS011;5433;50.862;4.320;2024-02-23T13:13:13;5.80;;;2.58;;
10761;SDS011;5433;50.862;4.320;2024-02-23T13:15:43;8.90;;;2.40;;
10761;SDS011;5433;50.862;4.320;2024-02-23T13:18:09;7.18;;;2.55;;
10761;SDS011;5433;50.862;4.320;2024-02-23T13:20:35;5.68;;;2.67;;
10761;SDS011;5433;50.862;4.320;2024-02-23T13:23:01;5.68;;;2.35;;
10761;SDS011;5433;50.862;4.320;2024-02-23T13:25:27;5.30;;;2.00;;
10761;SDS011;5433;50.862;4.320;2024-02-23T13:27:53;6.03;;;2.25;;
10761;SDS011;5433;50.862;4.320;2024-02-23T13:30:19;8.68;;;2.45;;
10761;SDS011;5433;50.862;4.320;2024-02-23T13:32:45;6.85;;;2.22;;
10761;SDS011;5433;50.862;4.320;2024-02-23T13:35:11;5.40;;;2.40;;
10761;SDS011;5433;50.862;4.320;2024-02-23T13:37:39;4.15;;;2.17;;
10761;SDS011;5433;50.862;4.320;2024-02-23T13:40:05;7.93;;;2.40;;
10761;SDS011;5433;50.862;4.320;2024-02-23T13:42:33;7.68;;;2.60;;
10761;SDS011;5433;50.862;4.320;2024-02-23T13:44:59;6.78;;;2.53;;
10761;SDS011;5433;50.862;4.320;2024-02-23T13:47:25;5.35;;;2.33;;
10761;SDS011;5433;50.862;4.320;2024-02-23T13:49:51;8.63;;;2.58;;
10761;SDS011;5433;50.862;4.320;2024-02-23T13:52:17;7.32;;;2.45;;
10761;SDS011;5433;50.862;4.320;2024-02-23T13:54:43;6.22;;;2.47;;
10761;SDS011;5433;50.862;4.320;2024-02-23T13:57:09;5.35;;;2.00;;
10761;SDS011;5433;50.862;4.320;2024-02-23T13:59:36;4.75;;;2.17;;
10761;SDS011;5433;50.862;4.320;2024-02-23T14:02:02;4.72;;;2.00;;
10761;SDS011;5433;50.862;4.320;2024-02-23T14:04:28;5.45;;;1.98;;
10761;SDS011;5433;50.862;4.320;2024-02-23T14:06:54;5.95;;;2.03;;
10761;SDS011;5433;50.862;4.320;2024-02-23T14:09:19;3.92;;;1.65;;
10761;SDS011;5433;50.862;4.320;2024-02-23T14:11:45;4.15;;;1.80;;
10761;SDS011;5433;50.862;4.320;2024-02-23T14:14:11;5.32;;;2.22;;
10761;SDS011;5433;50.862;4.320;2024-02-23T14:16:38;3.92;;;1.70;;
10761;SDS011;5433;50.862;4.320;2024-02-23T14:19:04;4.30;;;1.73;;
10761;SDS011;5433;50.862;4.320;2024-02-23T14:21:30;5.45;;;1.85;;
10761;SDS011;5433;50.862;4.320;2024-02-23T14:23:56;5.45;;;2.13;;
10761;SDS011;5433;50.862;4.320;2024-02-23T14:26:22;4.70;;;1.58;;
10761;SDS011;5433;50.862;4.320;2024-02-23T14:28:48;4.30;;;1.83;;
10761;SDS011;5433;50.862;4.320;2024-02-23T14:31:14;6.55;;;1.92;;
10761;SDS011;5433;50.862;4.320;2024-02-23T14:33:40;5.35;;;1.80;;
10761;SDS011;5433;50.862;4.320;2024-02-23T14:36:06;4.38;;;1.88;;
10761;SDS011;5433;50.862;4.320;2024-02-23T14:38:32;6.75;;;2.00;;
10761;SDS011;5433;50.862;4.320;2024-02-23T14:40:59;5.88;;;2.38;;
10761;SDS011;5433;50.862;4.320;2024-02-23T14:43:25;5.75;;;2.33;;
10761;SDS011;5433;50.862;4.320;2024-02-23T14:45:51;5.80;;;1.90;;
10761;SDS011;5433;50.862;4.320;2024-02-23T14:48:17;5.38;;;1.80;;
10761;SDS011;5433;50.862;4.320;2024-02-23T14:50:43;2.88;;;1.50;;
10761;SDS011;5433;50.862;4.320;2024-02-23T14:53:09;3.58;;;1.67;;
10761;SDS011;5433;50.862;4.320;2024-02-23T14:55:37;4.13;;;1.50;;
10761;SDS011;5433;50.862;4.320;2024-02-23T14:58:03;3.50;;;1.60;;
10761;SDS011;5433;50.862;4.320;2024-02-23T15:00:29;5.38;;;1.92;;
10761;SDS011;5433;50.862;4.320;2024-02-23T15:02:55;5.38;;;2.20;;
10761;SDS011;5433;50.862;4.320;2024-02-23T15:05:24;3.13;;;1.52;;
10761;SDS011;5433;50.862;4.320;2024-02-23T15:07:50;4.55;;;2.03;;
10761;SDS011;5433;50.862;4.320;2024-02-23T15:10:16;4.60;;;1.80;;
10761;SDS011;5433;50.862;4.320;2024-02-23T15:12:42;4.97;;;2.35;;
10761;SDS011;5433;50.862;4.320;2024-02-23T15:15:08;4.00;;;1.98;;
10761;SDS011;5433;50.862;4.320;2024-02-23T15:17:35;3.92;;;2.20;;
10761;SDS011;5433;50.862;4.320;2024-02-23T15:20:03;4.43;;;2.17;;
10761;SDS011;5433;50.862;4.320;2024-02-23T15:22:30;6.00;;;2.00;;
10761;SDS011;5433;50.862;4.320;2024-02-23T15:24:56;3.85;;;1.73;;
10761;SDS011;5433;50.862;4.320;2024-02-23T15:27:24;3.13;;;1.48;;